Tuesday, December 11, 2018, 3:08 AM GMT
Back to Local

CYSC, Sherbrooke, Que.

Location: , , Canada Lat: 45.4
Local Time: 3:08 AM GMT ( 3:08 GMT) Lon: -71.883
Time Zone: GMT Elev: 557 ft

Show me the last for .
Show Decoded

2018-12-11 02:00 METAR CYSC 110200Z AUTO 10003KT 9SM CLR M17/M19 A3017 RMK SLP240 =
2018-12-11 01:00 METAR CYSC 110100Z AUTO VRB02KT 9SM CLR M16/M18 A3018 RMK SLP243 =
2018-12-11 00:00 METAR CYSC 110000Z AUTO 00000KT 9SM OVC029 M14/M17 A3019 RMK SLP247 =
2018-12-10 23:00 METAR CYSC 102300Z AUTO 24003KT 9SM SCT029 M14/M17 A3018 RMK SLP242 =
2018-12-10 22:00 METAR CYSC 102200Z AUTO 27005KT 9SM CLR M13/M16 A3017 RMK SLP238 =
2018-12-10 21:00 METAR CYSC 102100Z AUTO 30005KT 9SM FEW030 M11/M16 A3015 RMK SLP230 =
2018-12-10 20:00 METAR CYSC 102000Z AUTO 28010KT 9SM SCT032 M10/M16 A3015 RMK SLP228 =
2018-12-10 19:36 METAR CYSC 101936Z AUTO 28006KT 260V340 9SM SCT030 M09/M15 A3014 RMK SLP225 =
2018-12-10 19:26 METAR CYSC 101926Z AUTO 26007KT 9SM -SN FEW030 SCT240 M09/M15 A3014 RMK SLP224 =
2018-12-10 19:16 METAR CYSC 101916Z AUTO 27007KT 9SM FEW030 M09/M16 A3014 RMK SLP223 =
2018-12-10 19:06 METAR CYSC 101906Z AUTO 27009KT 9SM -SN FEW030 SCT240 M09/M16 A3013 RMK SLP222 =
2018-12-10 19:00 METAR CYSC 101900Z AUTO 27006KT 9SM FEW029 SCT240 M10/M15 A3013 RMK SLP222 =
2018-12-10 18:23 METAR CYSC 101823Z AUTO 29008KT 9SM FEW250 M09/M16 A3013 RMK SLP221 =
2018-12-10 18:07 METAR CYSC 101807Z AUTO 28011KT 9SM -SN FEW029 M09/M16 A3013 RMK SLP221 =
2018-12-10 18:06 METAR CYSC 101806Z AUTO 28012KT 9SM FEW029 M09/M16 A3013 RMK SLP221 =
2018-12-10 18:00 METAR CYSC 101800Z AUTO 28011KT 9SM -SN FEW029 SCT250 M09/M16 A3013 RMK SLP221 =
2018-12-10 17:51 METAR CYSC 101751Z AUTO 28011KT 9SM -SN FEW029 SCT240 M09/M16 A3013 RMK SLP221 =
2018-12-10 17:00 METAR CYSC 101700Z AUTO 27008KT 250V330 9SM SCT025 BKN250 M09/M15 A3013 RMK
                 SLP221 =
2018-12-10 16:00 METAR CYSC 101600Z AUTO 28005KT 260V330 9SM FEW250 M10/M15 A3015 RMK SLP226 =
2018-12-10 15:00 METAR CYSC 101500Z AUTO 29009KT 9SM FEW240 M11/M15 A3016 RMK SLP231 =
2018-12-10 14:00 METAR CYSC 101400Z AUTO 25005KT 9SM CLR M12/M15 A3014 RMK SLP226 =
2018-12-10 13:00 METAR CYSC 101300Z AUTO 25002KT 9SM FEW250 M14/M15 A3013 RMK SLP221 =
2018-12-10 12:00 METAR CYSC 101200Z AUTO 26005KT 9SM CLR M14/M15 A3011 RMK SLP214 =
2018-12-10 11:00 METAR CYSC 101100Z AUTO 30004KT 9SM SCT034 M12/M14 A3010 RMK SLP211 =
2018-12-10 10:00 METAR CYSC 101000Z AUTO 32006KT 9SM OVC034 M10/M14 A3009 RMK SLP207 =
2018-12-10 09:43 METAR CYSC 100943Z AUTO 36005KT 310V010 9SM FEW020 OVC034 M09/M13 A3009 RMK
                 SLP206 =
2018-12-10 09:31 METAR CYSC 100931Z AUTO 35008KT 300V010 9SM -SN SCT020 OVC034 M09/M13 A3009 RMK
                 SLP206 =
2018-12-10 09:07 METAR CYSC 100907Z AUTO VRB02KT 9SM -SN BKN020 OVC036 M09/M12 A3008 RMK SLP204 =
2018-12-10 09:05 METAR CYSC 100905Z AUTO VRB02KT 9SM BKN020 OVC036 M09/M12 A3008 RMK SLP203 =
2018-12-10 09:00 METAR CYSC 100900Z AUTO 33003KT 9SM SCT020 OVC036 M09/M12 A3008 RMK SLP203 =
2018-12-10 08:00 METAR CYSC 100800Z AUTO 33007KT 9SM BKN031 OVC036 M08/M12 A3008 RMK SLP202 =
2018-12-10 07:44 METAR CYSC 100744Z AUTO 34006KT 9SM OVC031 M08/M12 A3008 RMK SLP202 =
2018-12-10 07:28 METAR CYSC 100728Z AUTO 32011G17KT 300V360 9SM -SN SCT021 OVC029 M08/M12 A3007
                 RMK SLP201 =
2018-12-10 07:00 METAR CYSC 100700Z AUTO 34007G18KT 9SM -SN FEW017 OVC024 M07/M10 A3007 RMK
                 PRESRR SLP197 =
2018-12-10 06:40 METAR CYSC 100640Z AUTO 33008G16KT 7SM -SN BKN016 OVC021 M06/M08 A3005 RMK
                 SLP191 =
2018-12-10 06:00 METAR CYSC 100600Z AUTO 31006KT 4SM -SN BKN017 BKN024 M05/M07 A3003 RMK SLP186 =
2018-12-10 05:56 METAR CYSC 100556Z AUTO 30006KT 5SM -SN BKN017 BKN024 M05/M07 A3003 RMK SLP186 =
2018-12-10 05:51 METAR CYSC 100551Z AUTO 31006KT 7SM -SN BKN017 BKN044 M05/M07 A3003 RMK SLP186 =
2018-12-10 05:00 METAR CYSC 100500Z AUTO 31008G17KT 9SM -SN FEW011 SCT016 BKN046 M04/M07 A3002
                 RMK SLP183 =
2018-12-10 04:53 METAR CYSC 100453Z AUTO 31010G19KT 6SM -SN FEW009 SCT013 BKN019 M04/M07 A3002
                 RMK SLP184 =
2018-12-10 04:49 METAR CYSC 100449Z AUTO 30012G21KT 3SM -SN SCT011 BKN018 M04/M07 A3002 RMK
                 SLP184 =
2018-12-10 04:48 METAR CYSC 100448Z AUTO 30012G21KT 2 1/2SM -SN SCT009 BKN016 M04/M07 A3002 RMK
                 SLP184 =
2018-12-10 04:46 METAR CYSC 100446Z AUTO 30015G21KT 2SM -SN BKN009 OVC016 M04/M06 A3002 RMK
                 SLP184 =
2018-12-10 04:40 METAR CYSC 100440Z AUTO 30013G19KT 1 3/4SM -SN BKN009 OVC016 M04/M05 A3002 RMK
                 SLP184 =
2018-12-10 04:32 METAR CYSC 100432Z AUTO 30014G21KT 2 1/4SM -SN BKN009 BKN016 OVC021 M03/M05
                 A3001 RMK VIS VRB 1-3 SLP180 =
2018-12-10 04:28 METAR CYSC 100428Z AUTO 30012G21KT 2SM -SN FEW005 BKN011 BKN016 OVC022 M03/M05
                 A3001 RMK VIS VRB 1-3 SLP180 =
2018-12-10 04:27 METAR CYSC 100427Z AUTO 30013G21KT 1 1/2SM -SN SCT009 BKN013 OVC022 M03/M05
                 A3001 RMK VIS VRB 1-3 SLP180 =
2018-12-10 04:16 METAR CYSC 100416Z AUTO 28013G18KT 1 3/4SM -SN BKN011 OVC015 M03/M05 A3001 RMK
                 SLP179 =
2018-12-10 04:00 METAR CYSC 100400Z AUTO 27011G17KT 2SM -SN FEW006 OVC013 M03/M05 A3001 RMK VIS
                 VRB 1 1/2-2 1/2 SLP178 =
2018-12-10 03:56 METAR CYSC 100356Z AUTO 27013G18KT 2 1/4SM -SN FEW008 BKN015 M03/M05 A3001 RMK
                 VIS VRB 1 1/2-3 SLP178 =
2018-12-10 03:40 METAR CYSC 100340Z AUTO 26012G17KT 5SM -SN BKN019 BKN026 M03/M05 A3000 RMK
                 SLP177 =
2018-12-10 03:26 METAR CYSC 100326Z AUTO 26011G17KT 9SM -SN BKN021 OVC028 M03/M05 A3001 RMK
                 SLP178 =

Support USWX by starting your Amazon purchase here.